createdAt,value
2023-04-03T00:01:17.579Z,11.98
2023-04-03T00:03:44.991Z,11.27
2023-04-03T00:06:13.312Z,12.55
2023-04-03T00:08:41.699Z,8.88
2023-04-03T00:11:09.227Z,8.30
2023-04-03T00:13:36.766Z,6.85
2023-04-03T00:16:04.656Z,5.57
2023-04-03T00:18:32.109Z,4.63
2023-04-03T00:20:59.598Z,7.03
2023-04-03T00:23:26.966Z,6.85
2023-04-03T00:25:54.292Z,8.65
2023-04-03T00:28:21.773Z,6.85
2023-04-03T00:30:52.530Z,7.78
2023-04-03T00:33:23.084Z,4.88
2023-04-03T00:35:50.870Z,7.70
2023-04-03T00:38:18.758Z,7.85
2023-04-03T00:40:49.565Z,5.47
2023-04-03T00:43:23.544Z,4.57
2023-04-03T00:45:52.981Z,5.47
2023-04-03T00:48:37.694Z,6.55
2023-04-03T00:51:08.420Z,5.00
2023-04-03T00:53:40.915Z,3.40
2023-04-03T00:56:11.619Z,5.57
2023-04-03T00:58:43.911Z,6.57
2023-04-03T01:01:16.592Z,8.13
2023-04-03T01:03:43.919Z,11.32
2023-04-03T01:06:11.900Z,10.20
2023-04-03T01:08:40.163Z,11.02
2023-04-03T01:11:07.392Z,8.68
2023-04-03T01:13:35.650Z,6.22
2023-04-03T01:16:06.559Z,8.02
2023-04-03T01:18:35.779Z,7.32
2023-04-03T01:21:34.044Z,11.10
2023-04-03T01:26:44.449Z,11.65
2023-04-03T01:29:12.664Z,6.60
2023-04-03T01:32:00.013Z,7.47
2023-04-03T01:34:28.737Z,5.82
2023-04-03T01:36:56.595Z,4.63
2023-04-03T01:39:23.936Z,6.85
2023-04-03T01:41:51.731Z,6.65
2023-04-03T01:44:25.212Z,8.07
2023-04-03T01:46:52.600Z,9.85
2023-04-03T01:49:20.664Z,8.10
2023-04-03T01:51:47.805Z,8.93
2023-04-03T01:54:15.806Z,5.53
2023-04-03T01:56:42.923Z,9.15
2023-04-03T01:59:10.179Z,8.27
2023-04-03T02:01:37.707Z,10.57
2023-04-03T02:04:05.164Z,5.13
2023-04-03T02:06:32.439Z,7.93
2023-04-03T02:08:59.627Z,4.75
2023-04-03T02:11:26.933Z,4.03
2023-04-03T02:13:53.989Z,3.25
2023-04-03T02:16:21.177Z,3.10
2023-04-03T02:18:50.231Z,2.70
2023-04-03T02:21:17.827Z,2.70
2023-04-03T02:23:44.941Z,2.70
2023-04-03T02:26:16.072Z,2.65
2023-04-03T02:28:45.997Z,3.22
2023-04-03T02:31:13.803Z,3.38
2023-04-03T02:33:42.871Z,2.83
2023-04-03T02:36:17.841Z,3.40
2023-04-03T02:38:51.256Z,3.13
2023-04-03T02:41:18.449Z,2.78
2023-04-03T02:43:45.970Z,2.90
2023-04-03T02:46:15.430Z,2.67
2023-04-03T02:48:43.006Z,3.15
2023-04-03T02:51:10.881Z,2.58
2023-04-03T02:53:37.987Z,3.03
2023-04-03T02:56:11.187Z,2.95
2023-04-03T02:58:38.456Z,3.15
2023-04-03T03:01:07.073Z,2.60
2023-04-03T03:03:34.250Z,3.10
2023-04-03T03:06:11.999Z,3.15
2023-04-03T03:08:41.270Z,2.72
2023-04-03T03:11:08.499Z,2.47
2023-04-03T03:13:35.739Z,3.33
2023-04-03T03:16:03.657Z,2.47
2023-04-03T03:18:31.694Z,2.55
2023-04-03T03:21:01.199Z,2.47
2023-04-03T03:23:30.718Z,2.40
2023-04-03T03:25:59.942Z,2.13
2023-04-03T03:28:27.909Z,2.47
2023-04-03T03:30:55.052Z,2.65
2023-04-03T03:33:23.217Z,2.83
2023-04-03T03:35:50.471Z,2.17
2023-04-03T03:38:17.642Z,2.30
2023-04-03T03:40:44.893Z,2.17
2023-04-03T03:43:12.210Z,2.40
2023-04-03T03:45:39.527Z,2.40
2023-04-03T03:48:07.039Z,2.58
2023-04-03T03:50:34.323Z,3.70
2023-04-03T03:53:02.110Z,3.90
2023-04-03T03:55:29.414Z,3.67
2023-04-03T03:57:58.452Z,3.38
2023-04-03T04:00:26.574Z,4.10
2023-04-03T04:02:58.735Z,5.10
2023-04-03T04:05:27.204Z,4.45
2023-04-03T04:07:55.034Z,4.95
2023-04-03T04:10:23.297Z,5.15
2023-04-03T04:12:52.624Z,5.13
2023-04-03T04:15:24.272Z,5.00
2023-04-03T04:17:51.919Z,5.80
2023-04-03T04:20:19.269Z,5.50
2023-04-03T04:22:48.055Z,5.30
2023-04-03T04:25:16.461Z,6.18
2023-04-03T04:27:43.734Z,6.30
2023-04-03T04:30:14.180Z,7.10
2023-04-03T04:32:42.080Z,6.57
2023-04-03T04:35:10.365Z,6.70
2023-04-03T04:37:41.443Z,6.47
2023-04-03T04:40:09.658Z,6.47
2023-04-03T04:42:37.083Z,6.28
2023-04-03T04:45:04.688Z,6.65
2023-04-03T04:47:32.266Z,8.02
2023-04-03T04:49:59.479Z,9.70
2023-04-03T04:52:27.223Z,9.80
2023-04-03T04:54:54.400Z,9.48
2023-04-03T04:57:21.787Z,8.65
2023-04-03T04:59:49.774Z,9.00
2023-04-03T05:02:17.119Z,8.82
2023-04-03T05:04:45.812Z,8.80
2023-04-03T05:07:19.324Z,7.88
2023-04-03T05:09:46.811Z,6.93
2023-04-03T05:12:15.607Z,7.10
2023-04-03T05:14:49.348Z,7.47
2023-04-03T05:17:17.143Z,8.88
2023-04-03T05:19:49.900Z,7.32
2023-04-03T05:22:18.825Z,8.02
2023-04-03T05:24:45.970Z,9.68
2023-04-03T05:27:13.234Z,8.18
2023-04-03T05:29:45.384Z,9.05
2023-04-03T05:32:17.550Z,8.88
2023-04-03T05:34:47.167Z,9.07
2023-04-03T05:37:17.317Z,8.98
2023-04-03T05:39:44.944Z,9.50
2023-04-03T05:42:12.928Z,9.60
2023-04-03T05:44:40.324Z,8.65
2023-04-03T05:47:07.486Z,6.65
2023-04-03T05:49:34.816Z,7.13
2023-04-03T05:52:02.588Z,7.30
2023-04-03T05:54:31.882Z,7.80
2023-04-03T05:57:06.498Z,6.72
2023-04-03T05:59:33.689Z,7.13
2023-04-03T06:02:02.467Z,6.70
2023-04-03T06:04:29.971Z,6.30
2023-04-03T06:06:59.104Z,6.80
2023-04-03T06:09:30.243Z,6.57
2023-04-03T06:11:59.903Z,7.30
2023-04-03T06:14:28.634Z,6.70
2023-04-03T06:16:56.523Z,7.15
2023-04-03T06:19:24.270Z,6.93
2023-04-03T06:21:56.029Z,6.50
2023-04-03T06:24:26.466Z,6.57
2023-04-03T06:26:54.835Z,6.65
2023-04-03T06:29:22.485Z,6.30
2023-04-03T06:31:51.800Z,5.78
2023-04-03T06:34:19.623Z,5.20
2023-04-03T06:36:47.636Z,5.75
2023-04-03T06:39:21.906Z,5.80
2023-04-03T06:41:49.319Z,5.20
2023-04-03T06:44:17.444Z,4.85
2023-04-03T06:46:47.820Z,5.53
2023-04-03T06:49:16.233Z,4.72
2023-04-03T06:51:44.048Z,5.10
2023-04-03T06:54:12.153Z,4.88
2023-04-03T06:56:39.523Z,4.97
2023-04-03T06:59:06.629Z,4.75
2023-04-03T07:01:34.632Z,5.18
2023-04-03T07:04:01.836Z,5.70
2023-04-03T07:06:29.352Z,5.15
2023-04-03T07:08:57.414Z,5.45
2023-04-03T07:11:25.241Z,5.38
2023-04-03T07:13:52.428Z,5.03
2023-04-03T07:16:20.736Z,7.50
2023-04-03T07:18:48.197Z,6.63
2023-04-03T07:21:16.048Z,6.32
2023-04-03T07:23:43.489Z,6.07
2023-04-03T07:26:11.070Z,8.88
2023-04-03T07:28:38.201Z,6.38
2023-04-03T07:31:09.950Z,5.97
2023-04-03T07:33:38.447Z,6.70
2023-04-03T07:36:08.251Z,7.43
2023-04-03T07:38:37.972Z,6.88
2023-04-03T07:41:05.875Z,7.03
2023-04-03T07:43:34.168Z,6.10
2023-04-03T07:46:02.198Z,6.13
2023-04-03T07:48:29.690Z,6.22
2023-04-03T07:51:01.616Z,8.43
2023-04-03T07:53:29.947Z,8.07
2023-04-03T07:55:58.647Z,8.60
2023-04-03T07:58:26.924Z,9.02
2023-04-03T08:00:54.387Z,7.40
2023-04-03T08:03:22.466Z,8.70
2023-04-03T08:05:50.990Z,10.15
2023-04-03T08:08:21.754Z,10.45
2023-04-03T08:10:51.523Z,9.68
2023-04-03T08:13:19.078Z,12.18
2023-04-03T08:15:46.795Z,9.98
2023-04-03T08:18:15.963Z,12.40
2023-04-03T08:20:44.446Z,8.40
2023-04-03T08:23:12.310Z,7.70
2023-04-03T08:25:42.243Z,7.05
2023-04-03T08:28:13.538Z,7.57
2023-04-03T08:30:43.703Z,5.93
2023-04-03T08:33:11.607Z,8.35
2023-04-03T08:35:43.360Z,7.53
2023-04-03T08:38:11.715Z,6.40
2023-04-03T08:40:39.549Z,5.63
2023-04-03T08:43:21.907Z,5.22
2023-04-03T08:45:56.700Z,5.10
2023-04-03T08:48:31.258Z,5.45
2023-04-03T08:51:03.920Z,6.15
2023-04-03T08:53:36.845Z,7.53
2023-04-03T08:56:09.661Z,5.95
2023-04-03T08:59:00.653Z,4.97
2023-04-03T09:01:35.690Z,4.20
2023-04-03T09:04:04.928Z,5.10
2023-04-03T09:06:34.278Z,5.05
2023-04-03T09:09:31.935Z,5.13
2023-04-03T09:12:18.351Z,3.85
2023-04-03T09:15:00.605Z,4.07
2023-04-03T09:17:36.958Z,5.28
2023-04-03T09:20:28.604Z,4.88
2023-04-03T09:22:56.034Z,4.28
2023-04-03T09:25:26.865Z,4.10
2023-04-03T09:27:54.354Z,3.85
2023-04-03T09:30:26.998Z,4.13
2023-04-03T09:32:56.710Z,4.25
2023-04-03T09:35:47.306Z,4.20
2023-04-03T09:38:16.980Z,5.03
2023-04-03T09:40:49.715Z,4.13
2023-04-03T09:43:28.949Z,3.92
2023-04-03T09:46:19.176Z,4.28
2023-04-03T09:49:13.779Z,4.63
2023-04-03T09:51:42.155Z,4.28
2023-04-03T09:54:40.258Z,4.20
2023-04-03T09:59:36.939Z,3.83
2023-04-03T10:02:19.042Z,3.78
2023-04-03T10:04:48.903Z,3.92
2023-04-03T10:07:29.194Z,3.47
2023-04-03T10:10:02.859Z,3.90
2023-04-03T10:12:31.231Z,4.07
2023-04-03T10:15:02.966Z,4.45
2023-04-03T10:17:45.234Z,3.42
2023-04-03T10:20:37.849Z,3.53
2023-04-03T10:23:24.070Z,3.75
2023-04-03T10:26:14.594Z,4.07
2023-04-03T10:28:57.888Z,3.80
2023-04-03T10:31:46.786Z,4.07
2023-04-03T10:34:29.804Z,3.75
2023-04-03T10:37:06.044Z,3.50
2023-04-03T10:39:41.088Z,3.65
2023-04-03T10:42:36.473Z,4.00
2023-04-03T10:45:19.964Z,3.88
2023-04-03T10:48:13.235Z,4.57
2023-04-03T10:51:03.682Z,4.57
2023-04-03T10:53:51.594Z,4.60
2023-04-03T10:56:51.236Z,4.32
2023-04-03T10:59:30.996Z,5.00
2023-04-03T11:02:17.000Z,5.63
2023-04-03T11:04:48.248Z,5.30
2023-04-03T11:07:38.292Z,4.60
2023-04-03T11:10:18.007Z,4.90
2023-04-03T11:12:57.720Z,6.40
2023-04-03T11:15:26.561Z,5.00
2023-04-03T11:18:00.589Z,5.20
2023-04-03T11:20:34.559Z,5.85
2023-04-03T11:23:20.656Z,5.85
2023-04-03T11:25:53.658Z,6.00
2023-04-03T11:28:21.224Z,6.32
2023-04-03T11:31:03.652Z,7.13
2023-04-03T11:33:55.464Z,6.80
2023-04-03T11:36:34.933Z,5.95
2023-04-03T11:39:19.896Z,6.18
2023-04-03T11:41:47.720Z,7.00
2023-04-03T11:44:35.416Z,6.72
2023-04-03T11:47:04.106Z,6.65
2023-04-03T11:50:02.423Z,6.18
2023-04-03T11:55:33.044Z,5.88
2023-04-03T11:58:00.224Z,5.80
2023-04-03T12:00:48.050Z,7.03
2023-04-03T12:03:24.688Z,6.40
2023-04-03T12:05:53.071Z,6.05
2023-04-03T12:08:30.728Z,5.97
2023-04-03T12:11:30.042Z,5.93
2023-04-03T12:13:57.153Z,6.35
2023-04-03T12:16:51.942Z,6.05
2023-04-03T12:19:26.461Z,6.43
2023-04-03T12:21:58.739Z,6.32
2023-04-03T12:24:34.961Z,6.28
2023-04-03T12:27:03.149Z,6.60
2023-04-03T12:29:44.104Z,6.63
2023-04-03T12:32:52.125Z,7.10
2023-04-03T12:35:31.367Z,7.20
2023-04-03T12:38:19.912Z,6.63
2023-04-03T12:41:05.068Z,6.93
2023-04-03T12:43:43.898Z,6.40
2023-04-03T12:46:17.449Z,8.43
2023-04-03T12:48:52.596Z,7.72
2023-04-03T12:51:24.930Z,7.60
2023-04-03T12:53:57.764Z,7.97
2023-04-03T12:56:32.197Z,7.57
2023-04-03T12:59:24.295Z,7.22
2023-04-03T13:02:00.022Z,7.82
2023-04-03T13:04:29.478Z,7.93
2023-04-03T13:06:56.654Z,9.27
2023-04-03T13:09:31.623Z,8.55
2023-04-03T13:12:09.348Z,7.85
2023-04-03T13:14:36.580Z,7.72
2023-04-03T13:17:17.419Z,8.65
2023-04-03T13:19:49.047Z,10.07
2023-04-03T13:22:40.614Z,9.68
2023-04-03T13:25:11.153Z,8.00
2023-04-03T13:27:40.755Z,8.18
2023-04-03T13:30:19.328Z,8.30
2023-04-03T13:32:46.604Z,10.05
2023-04-03T13:35:42.328Z,8.50
2023-04-03T13:38:21.659Z,8.35
2023-04-03T13:40:54.679Z,10.20
2023-04-03T13:43:26.609Z,9.80
2023-04-03T13:46:12.299Z,9.30
2023-04-03T13:48:43.978Z,10.70
2023-04-03T13:51:14.333Z,10.52
2023-04-03T13:53:49.210Z,11.25
2023-04-03T13:56:34.062Z,10.85
2023-04-03T13:59:13.265Z,10.88
2023-04-03T14:01:52.425Z,10.20
2023-04-03T14:04:29.413Z,9.60
2023-04-03T14:06:56.823Z,9.38
2023-04-03T14:09:26.543Z,9.70
2023-04-03T14:11:57.162Z,9.93
2023-04-03T14:14:32.017Z,10.75
2023-04-03T14:17:01.596Z,10.57
2023-04-03T14:19:34.615Z,9.18
2023-04-03T14:22:14.077Z,10.57
2023-04-03T14:24:41.647Z,11.00
2023-04-03T14:27:20.736Z,11.52
2023-04-03T14:29:49.398Z,10.02
2023-04-03T14:32:18.248Z,10.82
2023-04-03T14:34:46.503Z,10.05
2023-04-03T14:37:16.990Z,13.88
2023-04-03T14:39:44.988Z,12.40
2023-04-03T14:42:21.391Z,13.80
2023-04-03T14:44:49.322Z,14.48
2023-04-03T14:47:30.426Z,12.70
2023-04-03T14:49:58.914Z,13.30
2023-04-03T14:52:32.700Z,12.90
2023-04-03T14:55:07.669Z,12.10
2023-04-03T14:57:35.453Z,12.50
2023-04-03T15:00:03.887Z,13.55
2023-04-03T15:02:36.853Z,12.55
2023-04-03T15:05:10.342Z,13.23
2023-04-03T15:07:47.980Z,15.50
2023-04-03T15:10:20.073Z,13.85
2023-04-03T15:12:49.175Z,15.10
2023-04-03T15:15:18.312Z,13.52
2023-04-03T15:17:46.306Z,11.48
2023-04-03T15:20:20.472Z,13.45
2023-04-03T15:22:48.280Z,14.65
2023-04-03T15:25:16.179Z,14.40
2023-04-03T15:27:43.684Z,15.07
2023-04-03T15:30:16.410Z,13.18
2023-04-03T15:32:43.938Z,16.13
2023-04-03T15:35:11.841Z,10.65
2023-04-03T15:37:39.342Z,10.93
2023-04-03T15:40:07.823Z,8.60
2023-04-03T15:42:35.434Z,7.90
2023-04-03T15:45:03.151Z,11.13
2023-04-03T15:47:30.768Z,6.70
2023-04-03T15:49:58.447Z,8.13
2023-04-03T15:52:25.625Z,8.52
2023-04-03T15:54:53.106Z,9.52
2023-04-03T15:57:20.643Z,7.47
2023-04-03T15:59:48.041Z,6.82
2023-04-03T16:02:15.440Z,5.50
2023-04-03T16:04:43.339Z,4.03
2023-04-03T16:07:10.535Z,4.40
2023-04-03T16:09:38.329Z,3.03
2023-04-03T16:12:05.735Z,3.03
2023-04-03T16:14:33.223Z,3.42
2023-04-03T16:17:02.105Z,2.83
2023-04-03T16:19:31.633Z,3.33
2023-04-03T16:21:59.985Z,3.75
2023-04-03T16:24:28.111Z,3.28
2023-04-03T16:26:56.141Z,3.45
2023-04-03T16:29:24.419Z,2.55
2023-04-03T16:31:53.581Z,2.60
2023-04-03T16:34:22.106Z,3.10
2023-04-03T16:36:50.029Z,3.50
2023-04-03T16:39:17.486Z,3.10
2023-04-03T16:41:44.743Z,2.78
2023-04-03T16:44:11.965Z,4.32
2023-04-03T16:46:39.731Z,3.72
2023-04-03T16:49:06.993Z,3.78
2023-04-03T16:51:34.189Z,4.45
2023-04-03T16:54:01.546Z,4.18
2023-04-03T16:56:33.885Z,3.70
2023-04-03T16:59:01.182Z,2.13
2023-04-03T17:01:28.455Z,3.70
2023-04-03T17:03:56.009Z,2.60
2023-04-03T17:06:24.740Z,3.50
2023-04-03T17:08:53.482Z,2.63
2023-04-03T17:11:31.319Z,3.47
2023-04-03T17:13:58.719Z,3.97
2023-04-03T17:16:27.312Z,2.78
2023-04-03T17:18:55.447Z,2.70
2023-04-03T17:21:23.209Z,1.95
2023-04-03T17:24:00.428Z,2.10
2023-04-03T17:26:27.943Z,1.77
2023-04-03T17:28:55.440Z,1.63
2023-04-03T17:31:22.567Z,1.73
2023-04-03T17:33:49.773Z,1.60
2023-04-03T17:36:17.413Z,2.03
2023-04-03T17:38:44.580Z,1.77
2023-04-03T17:41:11.986Z,1.57
2023-04-03T17:43:39.194Z,1.77
2023-04-03T17:46:09.383Z,1.20
2023-04-03T17:48:38.454Z,1.37
2023-04-03T17:51:16.904Z,2.23
2023-04-03T17:53:44.820Z,1.60
2023-04-03T17:56:14.649Z,1.10
2023-04-03T17:58:42.480Z,1.30
2023-04-03T18:01:15.815Z,1.33
2023-04-03T18:03:43.734Z,1.30
2023-04-03T18:06:14.096Z,1.27
2023-04-03T18:08:48.296Z,0.90
2023-04-03T18:11:17.171Z,1.00
2023-04-03T18:13:45.669Z,1.20
2023-04-03T18:16:14.058Z,1.20
2023-04-03T18:18:41.780Z,1.20
2023-04-03T18:21:11.097Z,0.93
2023-04-03T18:23:42.222Z,0.93
2023-04-03T18:26:13.086Z,0.80
2023-04-03T18:28:45.915Z,0.80
2023-04-03T18:31:16.397Z,1.00
2023-04-03T18:33:44.091Z,0.90
2023-04-03T18:36:11.599Z,1.00
2023-04-03T18:38:38.927Z,1.10
2023-04-03T18:41:09.613Z,1.50
2023-04-03T18:43:36.893Z,1.00
2023-04-03T18:46:05.750Z,1.13
2023-04-03T18:48:36.843Z,0.80
2023-04-03T18:51:06.293Z,1.50
2023-04-03T18:53:33.519Z,1.20
2023-04-03T18:56:00.989Z,1.20
2023-04-03T18:58:28.159Z,1.57
2023-04-03T19:00:55.498Z,1.30
2023-04-03T19:03:22.912Z,1.73
2023-04-03T19:05:50.116Z,0.87
2023-04-03T19:08:17.356Z,0.80
2023-04-03T19:10:44.513Z,0.87
2023-04-03T19:13:11.772Z,1.20
2023-04-03T19:15:39.339Z,1.50
2023-04-03T19:18:06.603Z,1.70
2023-04-03T19:20:34.029Z,1.20
2023-04-03T19:23:01.119Z,0.77
2023-04-03T19:25:28.275Z,0.80
2023-04-03T19:27:55.726Z,1.00
2023-04-03T19:30:24.961Z,1.13
2023-04-03T19:32:52.205Z,1.00
2023-04-03T19:35:19.512Z,1.10
2023-04-03T19:37:51.135Z,1.07
2023-04-03T19:40:18.988Z,0.80
2023-04-03T19:42:46.554Z,0.70
2023-04-03T19:45:15.369Z,0.87
2023-04-03T19:47:43.002Z,0.77
2023-04-03T19:50:11.091Z,0.70
2023-04-03T19:52:38.394Z,0.50
2023-04-03T19:55:06.022Z,0.60
2023-04-03T19:57:33.573Z,0.93
2023-04-03T20:00:01.440Z,1.00
2023-04-03T20:02:28.827Z,1.00
2023-04-03T20:04:56.006Z,1.07
2023-04-03T20:07:23.468Z,1.10
2023-04-03T20:09:50.768Z,1.00
2023-04-03T20:12:18.009Z,0.90
2023-04-03T20:14:47.250Z,0.70
2023-04-03T20:17:15.946Z,0.80
2023-04-03T20:19:43.203Z,0.70
2023-04-03T20:22:13.470Z,0.80
2023-04-03T20:24:40.802Z,0.90
2023-04-03T20:27:07.928Z,0.90
2023-04-03T20:29:43.765Z,0.60
2023-04-03T20:32:12.328Z,0.40
2023-04-03T20:34:39.522Z,0.77
2023-04-03T20:37:07.034Z,0.87
2023-04-03T20:39:34.341Z,0.60
2023-04-03T20:42:03.707Z,1.20
2023-04-03T20:44:32.355Z,1.50
2023-04-03T20:46:59.550Z,0.80
2023-04-03T20:49:26.680Z,0.70
2023-04-03T20:51:53.891Z,1.27
2023-04-03T20:54:21.153Z,0.90
2023-04-03T20:56:50.375Z,0.60
2023-04-03T20:59:18.733Z,1.00
2023-04-03T21:01:47.167Z,1.07
2023-04-03T21:04:25.054Z,1.00
2023-04-03T21:07:29.929Z,1.50
2023-04-03T21:10:34.741Z,1.77
2023-04-03T21:13:39.010Z,1.70
2023-04-03T21:16:06.081Z,0.90
2023-04-03T21:18:37.166Z,1.03
2023-04-03T21:21:05.213Z,0.90
2023-04-03T21:23:33.477Z,1.17
2023-04-03T21:26:01.721Z,1.00
2023-04-03T21:28:29.282Z,0.97
2023-04-03T21:30:56.694Z,0.70
2023-04-03T21:33:23.853Z,1.60
2023-04-03T21:35:57.978Z,1.60
2023-04-03T21:38:27.648Z,0.73
2023-04-03T21:41:01.267Z,1.70
2023-04-03T21:43:28.844Z,1.63
2023-04-03T21:46:00.195Z,1.20
2023-04-03T21:48:31.232Z,0.60
2023-04-03T21:51:05.360Z,0.97
2023-04-03T21:53:34.739Z,0.83
2023-04-03T21:56:02.870Z,1.30
2023-04-03T21:58:32.249Z,1.03
2023-04-03T22:01:10.135Z,1.20
2023-04-03T22:03:44.544Z,1.30
2023-04-03T22:06:15.269Z,1.30
2023-04-03T22:08:43.832Z,1.30
2023-04-03T22:11:15.949Z,0.70
2023-04-03T22:13:44.307Z,0.90
2023-04-03T22:16:13.120Z,1.37
2023-04-03T22:18:40.351Z,0.90
2023-04-03T22:21:10.455Z,0.93
2023-04-03T22:23:38.223Z,0.83
2023-04-03T22:26:10.533Z,0.70
2023-04-03T22:28:46.252Z,0.70
2023-04-03T22:31:14.667Z,0.50
2023-04-03T22:33:43.591Z,0.90
2023-04-03T22:36:12.235Z,0.53
2023-04-03T22:38:43.365Z,0.93
2023-04-03T22:41:10.987Z,0.60
2023-04-03T22:43:38.512Z,0.80
2023-04-03T22:46:10.098Z,0.77
2023-04-03T22:48:38.947Z,1.10
2023-04-03T22:51:09.296Z,1.23
2023-04-03T22:53:36.876Z,1.60
2023-04-03T22:56:08.792Z,2.00
2023-04-03T22:58:36.190Z,2.77
2023-04-03T23:01:11.666Z,2.83
2023-04-03T23:03:40.589Z,3.03
2023-04-03T23:06:09.476Z,3.47
2023-04-03T23:08:42.229Z,3.60
2023-04-03T23:11:12.471Z,3.87
2023-04-03T23:13:39.764Z,3.87
2023-04-03T23:16:07.422Z,2.97
2023-04-03T23:18:34.680Z,3.60
2023-04-03T23:21:04.376Z,3.43
2023-04-03T23:23:32.240Z,3.67
2023-04-03T23:26:02.932Z,4.50
2023-04-03T23:28:30.772Z,4.17
2023-04-03T23:31:02.024Z,4.50
2023-04-03T23:33:31.201Z,4.50
2023-04-03T23:35:59.491Z,3.30
2023-04-03T23:38:26.917Z,3.13
2023-04-03T23:40:54.141Z,1.63
2023-04-03T23:43:21.443Z,2.23
2023-04-03T23:45:48.681Z,1.33
2023-04-03T23:48:15.932Z,0.60
2023-04-03T23:50:44.036Z,0.70
2023-04-03T23:53:13.271Z,0.80
2023-04-03T23:55:40.858Z,0.40
2023-04-03T23:58:08.051Z,0.43
